Lienz, Austria
Current Conditions -  °F | °C
As of 1:58 AM on Saturday 25 Oct 2014 (Local Time) from LIYW Reporting Station
Overcast Overcast  
Wind Chill: 55°   Ceiling: 4900
Heat Index: 55°   Visibility: 6mi
Dew Point: 54°   Wind: 3mph
Humidity: 99%   Direction: 180°S
Pressure: 30.11"   Gusts: NA
Location:  46.83°N, 12.76°E
Report Text: LIYW 242358Z AUTO 18003KT 9999 FEW034 OVC049 13/12 A3011 RMK AO2 SLP197 T01250124 10135 20118 402170071 53013
Loading
Personal Weather Stations






























Interactive Weather Map
Tropical Storm Tracking
New forecast layout! Learn more

10-Day Weather Forecast

Advertisements
Track Severe Weather on mobile